sensor_id;sensor_type;location;lat;lon;timestamp;P1;durP1;ratioP1;P2;durP2;ratioP2
2610;SDS011;5612;51.134;17.058;2023-01-28T00:00:02;38.80;;;25.80;;
2610;SDS011;5612;51.134;17.058;2023-01-28T00:02:35;38.47;;;25.63;;
2610;SDS011;5612;51.134;17.058;2023-01-28T00:05:06;42.40;;;24.40;;
2610;SDS011;5612;51.134;17.058;2023-01-28T00:07:35;41.43;;;25.60;;
2610;SDS011;5612;51.134;17.058;2023-01-28T00:10:04;35.00;;;23.37;;
2610;SDS011;5612;51.134;17.058;2023-01-28T00:12:34;34.60;;;23.50;;
2610;SDS011;5612;51.134;17.058;2023-01-28T00:15:03;43.20;;;24.67;;
2610;SDS011;5612;51.134;17.058;2023-01-28T00:17:32;43.90;;;27.37;;
2610;SDS011;5612;51.134;17.058;2023-01-28T00:20:02;37.07;;;24.40;;
2610;SDS011;5612;51.134;17.058;2023-01-28T00:22:33;43.60;;;27.03;;
2610;SDS011;5612;51.134;17.058;2023-01-28T00:25:01;37.33;;;23.83;;
2610;SDS011;5612;51.134;17.058;2023-01-28T00:27:31;38.77;;;24.70;;
2610;SDS011;5612;51.134;17.058;2023-01-28T00:30:00;42.30;;;28.13;;
2610;SDS011;5612;51.134;17.058;2023-01-28T00:32:28;43.53;;;26.77;;
2610;SDS011;5612;51.134;17.058;2023-01-28T00:34:57;42.03;;;25.63;;
2610;SDS011;5612;51.134;17.058;2023-01-28T00:37:26;35.60;;;24.23;;
2610;SDS011;5612;51.134;17.058;2023-01-28T00:39:56;42.07;;;25.90;;
2610;SDS011;5612;51.134;17.058;2023-01-28T00:42:25;35.37;;;23.73;;
2610;SDS011;5612;51.134;17.058;2023-01-28T00:44:54;42.93;;;24.27;;
2610;SDS011;5612;51.134;17.058;2023-01-28T00:47:23;43.00;;;26.37;;
2610;SDS011;5612;51.134;17.058;2023-01-28T00:49:51;37.30;;;24.77;;
2610;SDS011;5612;51.134;17.058;2023-01-28T00:52:21;40.90;;;25.43;;
2610;SDS011;5612;51.134;17.058;2023-01-28T00:54:49;39.10;;;24.40;;
2610;SDS011;5612;51.134;17.058;2023-01-28T00:57:19;41.10;;;27.97;;
2610;SDS011;5612;51.134;17.058;2023-01-28T00:59:48;42.67;;;26.10;;
2610;SDS011;5612;51.134;17.058;2023-01-28T01:02:17;43.60;;;25.70;;
2610;SDS011;5612;51.134;17.058;2023-01-28T01:04:46;37.93;;;25.23;;
2610;SDS011;5612;51.134;17.058;2023-01-28T01:07:25;42.97;;;25.47;;
2610;SDS011;5612;51.134;17.058;2023-01-28T01:10:00;42.60;;;26.10;;
2610;SDS011;5612;51.134;17.058;2023-01-28T01:12:31;41.30;;;25.57;;
2610;SDS011;5612;51.134;17.058;2023-01-28T01:15:00;43.50;;;25.63;;
2610;SDS011;5612;51.134;17.058;2023-01-28T01:17:29;43.03;;;28.10;;
2610;SDS011;5612;51.134;17.058;2023-01-28T01:19:58;38.23;;;25.77;;
2610;SDS011;5612;51.134;17.058;2023-01-28T01:22:26;37.83;;;26.50;;
2610;SDS011;5612;51.134;17.058;2023-01-28T01:24:56;38.70;;;23.40;;
2610;SDS011;5612;51.134;17.058;2023-01-28T01:27:25;37.73;;;27.10;;
2610;SDS011;5612;51.134;17.058;2023-01-28T01:29:56;35.17;;;23.60;;
2610;SDS011;5612;51.134;17.058;2023-01-28T01:32:24;36.23;;;25.13;;
2610;SDS011;5612;51.134;17.058;2023-01-28T01:34:56;35.27;;;25.30;;
2610;SDS011;5612;51.134;17.058;2023-01-28T01:37:25;32.97;;;25.73;;
2610;SDS011;5612;51.134;17.058;2023-01-28T01:39:55;41.87;;;24.67;;
2610;SDS011;5612;51.134;17.058;2023-01-28T01:42:23;36.27;;;25.77;;
2610;SDS011;5612;51.134;17.058;2023-01-28T01:44:57;34.77;;;22.00;;
2610;SDS011;5612;51.134;17.058;2023-01-28T01:47:30;36.83;;;24.57;;
2610;SDS011;5612;51.134;17.058;2023-01-28T01:50:05;30.30;;;21.73;;
2610;SDS011;5612;51.134;17.058;2023-01-28T01:52:38;38.70;;;25.57;;
2610;SDS011;5612;51.134;17.058;2023-01-28T01:55:11;38.53;;;24.87;;
2610;SDS011;5612;51.134;17.058;2023-01-28T01:57:43;42.17;;;25.73;;
2610;SDS011;5612;51.134;17.058;2023-01-28T02:00:17;35.07;;;23.90;;
2610;SDS011;5612;51.134;17.058;2023-01-28T02:02:46;37.60;;;26.40;;
2610;SDS011;5612;51.134;17.058;2023-01-28T02:05:17;37.37;;;25.70;;
2610;SDS011;5612;51.134;17.058;2023-01-28T02:07:47;37.43;;;26.00;;
2610;SDS011;5612;51.134;17.058;2023-01-28T02:10:20;45.37;;;25.60;;
2610;SDS011;5612;51.134;17.058;2023-01-28T02:12:51;44.83;;;26.67;;
2610;SDS011;5612;51.134;17.058;2023-01-28T02:15:24;34.40;;;24.30;;
2610;SDS011;5612;51.134;17.058;2023-01-28T02:17:55;37.97;;;25.10;;
2610;SDS011;5612;51.134;17.058;2023-01-28T02:20:24;37.50;;;25.00;;
2610;SDS011;5612;51.134;17.058;2023-01-28T02:23:07;39.77;;;24.47;;
2610;SDS011;5612;51.134;17.058;2023-01-28T02:29:16;35.20;;;24.37;;
2610;SDS011;5612;51.134;17.058;2023-01-28T02:31:54;38.63;;;23.00;;
2610;SDS011;5612;51.134;17.058;2023-01-28T02:34:32;39.30;;;24.90;;
2610;SDS011;5612;51.134;17.058;2023-01-28T02:37:06;36.17;;;26.67;;
2610;SDS011;5612;51.134;17.058;2023-01-28T02:39:41;33.60;;;23.40;;
2610;SDS011;5612;51.134;17.058;2023-01-28T02:42:16;33.70;;;22.47;;
2610;SDS011;5612;51.134;17.058;2023-01-28T02:44:49;35.60;;;25.27;;
2610;SDS011;5612;51.134;17.058;2023-01-28T02:47:18;33.80;;;24.13;;
2610;SDS011;5612;51.134;17.058;2023-01-28T02:50:05;41.30;;;26.00;;
2610;SDS011;5612;51.134;17.058;2023-01-28T02:52:41;41.17;;;25.67;;
2610;SDS011;5612;51.134;17.058;2023-01-28T02:55:37;37.20;;;25.47;;
2610;SDS011;5612;51.134;17.058;2023-01-28T02:58:12;36.17;;;24.50;;
2610;SDS011;5612;51.134;17.058;2023-01-28T03:00:49;41.23;;;25.90;;
2610;SDS011;5612;51.134;17.058;2023-01-28T03:03:24;34.50;;;24.27;;
2610;SDS011;5612;51.134;17.058;2023-01-28T03:05:57;33.07;;;24.07;;
2610;SDS011;5612;51.134;17.058;2023-01-28T03:08:34;38.07;;;25.27;;
2610;SDS011;5612;51.134;17.058;2023-01-28T03:11:23;36.90;;;25.27;;
2610;SDS011;5612;51.134;17.058;2023-01-28T03:14:10;37.37;;;26.50;;
2610;SDS011;5612;51.134;17.058;2023-01-28T03:16:59;37.43;;;26.50;;
2610;SDS011;5612;51.134;17.058;2023-01-28T03:19:46;39.30;;;26.73;;
2610;SDS011;5612;51.134;17.058;2023-01-28T03:22:33;40.60;;;27.27;;
2610;SDS011;5612;51.134;17.058;2023-01-28T03:25:22;36.07;;;24.07;;
2610;SDS011;5612;51.134;17.058;2023-01-28T03:28:12;33.07;;;23.10;;
2610;SDS011;5612;51.134;17.058;2023-01-28T03:31:03;32.07;;;21.87;;
2610;SDS011;5612;51.134;17.058;2023-01-28T03:33:54;35.40;;;23.87;;
2610;SDS011;5612;51.134;17.058;2023-01-28T03:36:43;32.33;;;23.17;;
2610;SDS011;5612;51.134;17.058;2023-01-28T03:39:17;31.03;;;20.70;;
2610;SDS011;5612;51.134;17.058;2023-01-28T03:41:55;32.30;;;20.27;;
2610;SDS011;5612;51.134;17.058;2023-01-28T03:44:28;34.43;;;19.67;;
2610;SDS011;5612;51.134;17.058;2023-01-28T03:47:15;31.60;;;20.40;;
2610;SDS011;5612;51.134;17.058;2023-01-28T03:49:46;33.43;;;22.37;;
2610;SDS011;5612;51.134;17.058;2023-01-28T03:52:17;28.10;;;21.80;;
2610;SDS011;5612;51.134;17.058;2023-01-28T03:54:47;31.17;;;21.20;;
2610;SDS011;5612;51.134;17.058;2023-01-28T03:57:16;34.87;;;23.60;;
2610;SDS011;5612;51.134;17.058;2023-01-28T03:59:45;37.53;;;26.40;;
2610;SDS011;5612;51.134;17.058;2023-01-28T04:02:15;39.93;;;27.80;;
2610;SDS011;5612;51.134;17.058;2023-01-28T04:04:45;38.17;;;25.63;;
2610;SDS011;5612;51.134;17.058;2023-01-28T04:07:16;39.27;;;25.70;;
2610;SDS011;5612;51.134;17.058;2023-01-28T04:09:45;37.27;;;24.90;;
2610;SDS011;5612;51.134;17.058;2023-01-28T04:12:13;34.80;;;24.53;;
2610;SDS011;5612;51.134;17.058;2023-01-28T04:14:42;37.40;;;24.40;;
2610;SDS011;5612;51.134;17.058;2023-01-28T04:17:11;33.70;;;26.67;;
2610;SDS011;5612;51.134;17.058;2023-01-28T04:19:40;38.63;;;26.10;;
2610;SDS011;5612;51.134;17.058;2023-01-28T04:22:10;32.13;;;25.20;;
2610;SDS011;5612;51.134;17.058;2023-01-28T04:24:39;32.13;;;22.67;;
2610;SDS011;5612;51.134;17.058;2023-01-28T04:27:08;35.40;;;24.73;;
2610;SDS011;5612;51.134;17.058;2023-01-28T04:29:36;31.03;;;21.67;;
2610;SDS011;5612;51.134;17.058;2023-01-28T04:32:05;29.47;;;23.17;;
2610;SDS011;5612;51.134;17.058;2023-01-28T04:34:37;33.50;;;25.27;;
2610;SDS011;5612;51.134;17.058;2023-01-28T04:37:05;41.10;;;25.67;;
2610;SDS011;5612;51.134;17.058;2023-01-28T04:39:35;35.70;;;26.27;;
2610;SDS011;5612;51.134;17.058;2023-01-28T04:42:04;33.80;;;24.87;;
2610;SDS011;5612;51.134;17.058;2023-01-28T04:44:33;37.93;;;23.10;;
2610;SDS011;5612;51.134;17.058;2023-01-28T04:47:02;33.47;;;24.23;;
2610;SDS011;5612;51.134;17.058;2023-01-28T04:49:30;35.77;;;23.63;;
2610;SDS011;5612;51.134;17.058;2023-01-28T04:51:59;38.20;;;26.97;;
2610;SDS011;5612;51.134;17.058;2023-01-28T04:54:28;38.00;;;26.57;;
2610;SDS011;5612;51.134;17.058;2023-01-28T04:56:58;36.80;;;25.07;;
2610;SDS011;5612;51.134;17.058;2023-01-28T04:59:27;40.20;;;25.03;;
2610;SDS011;5612;51.134;17.058;2023-01-28T05:01:56;31.40;;;22.73;;
2610;SDS011;5612;51.134;17.058;2023-01-28T05:04:24;31.77;;;23.47;;
2610;SDS011;5612;51.134;17.058;2023-01-28T05:06:53;32.90;;;20.87;;
2610;SDS011;5612;51.134;17.058;2023-01-28T05:09:22;28.60;;;21.17;;
2610;SDS011;5612;51.134;17.058;2023-01-28T05:11:51;33.07;;;25.10;;
2610;SDS011;5612;51.134;17.058;2023-01-28T05:14:21;30.83;;;22.63;;
2610;SDS011;5612;51.134;17.058;2023-01-28T05:16:50;35.10;;;24.13;;
2610;SDS011;5612;51.134;17.058;2023-01-28T05:19:19;33.90;;;24.33;;
2610;SDS011;5612;51.134;17.058;2023-01-28T05:21:48;34.53;;;24.33;;
2610;SDS011;5612;51.134;17.058;2023-01-28T05:24:16;34.93;;;24.30;;
2610;SDS011;5612;51.134;17.058;2023-01-28T05:26:47;34.70;;;24.57;;
2610;SDS011;5612;51.134;17.058;2023-01-28T05:29:16;37.90;;;29.13;;
2610;SDS011;5612;51.134;17.058;2023-01-28T05:31:46;36.40;;;25.60;;
2610;SDS011;5612;51.134;17.058;2023-01-28T05:34:15;35.30;;;26.43;;
2610;SDS011;5612;51.134;17.058;2023-01-28T05:36:43;41.17;;;26.80;;
2610;SDS011;5612;51.134;17.058;2023-01-28T05:39:12;36.97;;;26.53;;
2610;SDS011;5612;51.134;17.058;2023-01-28T05:41:41;39.90;;;26.03;;
2610;SDS011;5612;51.134;17.058;2023-01-28T05:44:09;38.93;;;25.27;;
2610;SDS011;5612;51.134;17.058;2023-01-28T05:46:38;34.00;;;25.57;;
2610;SDS011;5612;51.134;17.058;2023-01-28T05:49:12;36.60;;;25.77;;
2610;SDS011;5612;51.134;17.058;2023-01-28T05:51:41;33.00;;;26.10;;
2610;SDS011;5612;51.134;17.058;2023-01-28T05:54:10;35.67;;;24.90;;
2610;SDS011;5612;51.134;17.058;2023-01-28T05:56:38;36.13;;;25.17;;
2610;SDS011;5612;51.134;17.058;2023-01-28T05:59:09;36.17;;;26.30;;
2610;SDS011;5612;51.134;17.058;2023-01-28T06:01:38;34.57;;;25.07;;
2610;SDS011;5612;51.134;17.058;2023-01-28T06:04:07;34.30;;;26.77;;
2610;SDS011;5612;51.134;17.058;2023-01-28T06:06:38;34.63;;;26.60;;
2610;SDS011;5612;51.134;17.058;2023-01-28T06:09:06;29.97;;;24.13;;
2610;SDS011;5612;51.134;17.058;2023-01-28T06:11:35;36.23;;;25.20;;
2610;SDS011;5612;51.134;17.058;2023-01-28T06:14:04;33.00;;;23.93;;
2610;SDS011;5612;51.134;17.058;2023-01-28T06:16:32;33.77;;;25.70;;
2610;SDS011;5612;51.134;17.058;2023-01-28T06:19:01;34.60;;;24.40;;
2610;SDS011;5612;51.134;17.058;2023-01-28T06:21:30;34.20;;;24.03;;
2610;SDS011;5612;51.134;17.058;2023-01-28T06:24:00;35.87;;;23.40;;
2610;SDS011;5612;51.134;17.058;2023-01-28T06:26:30;32.70;;;22.20;;
2610;SDS011;5612;51.134;17.058;2023-01-28T06:28:59;36.13;;;25.20;;
2610;SDS011;5612;51.134;17.058;2023-01-28T06:31:27;39.03;;;25.20;;
2610;SDS011;5612;51.134;17.058;2023-01-28T06:33:56;37.17;;;24.20;;
2610;SDS011;5612;51.134;17.058;2023-01-28T06:36:25;35.23;;;25.10;;
2610;SDS011;5612;51.134;17.058;2023-01-28T06:38:54;30.43;;;22.70;;
2610;SDS011;5612;51.134;17.058;2023-01-28T06:41:24;37.70;;;24.20;;
2610;SDS011;5612;51.134;17.058;2023-01-28T06:43:53;33.93;;;23.63;;
2610;SDS011;5612;51.134;17.058;2023-01-28T06:46:22;34.87;;;23.57;;
2610;SDS011;5612;51.134;17.058;2023-01-28T06:48:52;32.97;;;23.93;;
2610;SDS011;5612;51.134;17.058;2023-01-28T06:51:21;29.93;;;21.90;;
2610;SDS011;5612;51.134;17.058;2023-01-28T06:53:49;29.67;;;22.93;;
2610;SDS011;5612;51.134;17.058;2023-01-28T06:56:18;31.30;;;20.97;;
2610;SDS011;5612;51.134;17.058;2023-01-28T06:58:48;32.33;;;22.27;;
2610;SDS011;5612;51.134;17.058;2023-01-28T07:01:17;31.50;;;22.70;;
2610;SDS011;5612;51.134;17.058;2023-01-28T07:03:46;29.27;;;22.03;;
2610;SDS011;5612;51.134;17.058;2023-01-28T07:06:15;31.20;;;22.03;;
2610;SDS011;5612;51.134;17.058;2023-01-28T07:08:43;31.37;;;22.63;;
2610;SDS011;5612;51.134;17.058;2023-01-28T07:11:12;28.93;;;21.73;;
2610;SDS011;5612;51.134;17.058;2023-01-28T07:13:42;30.33;;;23.47;;
2610;SDS011;5612;51.134;17.058;2023-01-28T07:16:12;33.27;;;23.07;;
2610;SDS011;5612;51.134;17.058;2023-01-28T07:18:41;29.90;;;21.57;;
2610;SDS011;5612;51.134;17.058;2023-01-28T07:21:09;30.23;;;21.23;;
2610;SDS011;5612;51.134;17.058;2023-01-28T07:23:38;28.57;;;22.60;;
2610;SDS011;5612;51.134;17.058;2023-01-28T07:26:07;29.33;;;21.83;;
2610;SDS011;5612;51.134;17.058;2023-01-28T07:28:36;30.43;;;20.87;;
2610;SDS011;5612;51.134;17.058;2023-01-28T07:31:05;28.63;;;20.87;;
2610;SDS011;5612;51.134;17.058;2023-01-28T07:33:36;27.40;;;21.23;;
2610;SDS011;5612;51.134;17.058;2023-01-28T07:36:05;27.60;;;21.20;;
2610;SDS011;5612;51.134;17.058;2023-01-28T07:38:34;33.17;;;21.07;;
2610;SDS011;5612;51.134;17.058;2023-01-28T07:41:03;29.40;;;22.37;;
2610;SDS011;5612;51.134;17.058;2023-01-28T07:43:32;26.97;;;21.83;;
2610;SDS011;5612;51.134;17.058;2023-01-28T07:46:01;31.87;;;22.13;;
2610;SDS011;5612;51.134;17.058;2023-01-28T07:48:30;28.33;;;21.73;;
2610;SDS011;5612;51.134;17.058;2023-01-28T07:51:00;24.83;;;20.57;;
2610;SDS011;5612;51.134;17.058;2023-01-28T07:53:29;28.70;;;22.50;;
2610;SDS011;5612;51.134;17.058;2023-01-28T07:55:58;25.07;;;20.80;;
2610;SDS011;5612;51.134;17.058;2023-01-28T07:58:27;31.87;;;21.40;;
2610;SDS011;5612;51.134;17.058;2023-01-28T08:00:56;27.93;;;21.70;;
2610;SDS011;5612;51.134;17.058;2023-01-28T08:03:26;27.87;;;21.40;;
2610;SDS011;5612;51.134;17.058;2023-01-28T08:05:55;29.03;;;21.13;;
2610;SDS011;5612;51.134;17.058;2023-01-28T08:08:26;29.23;;;21.73;;
2610;SDS011;5612;51.134;17.058;2023-01-28T08:10:55;28.73;;;23.43;;
2610;SDS011;5612;51.134;17.058;2023-01-28T08:13:24;29.40;;;23.80;;
2610;SDS011;5612;51.134;17.058;2023-01-28T08:15:53;28.60;;;21.63;;
2610;SDS011;5612;51.134;17.058;2023-01-28T08:18:23;26.60;;;20.23;;
2610;SDS011;5612;51.134;17.058;2023-01-28T08:20:53;30.23;;;22.10;;
2610;SDS011;5612;51.134;17.058;2023-01-28T08:23:23;30.30;;;23.27;;
2610;SDS011;5612;51.134;17.058;2023-01-28T08:25:54;28.03;;;22.80;;
2610;SDS011;5612;51.134;17.058;2023-01-28T08:28:25;35.23;;;22.43;;
2610;SDS011;5612;51.134;17.058;2023-01-28T08:30:54;29.73;;;20.70;;
2610;SDS011;5612;51.134;17.058;2023-01-28T08:33:26;32.27;;;23.67;;
2610;SDS011;5612;51.134;17.058;2023-01-28T08:35:55;28.50;;;23.13;;
2610;SDS011;5612;51.134;17.058;2023-01-28T08:38:24;28.77;;;21.03;;
2610;SDS011;5612;51.134;17.058;2023-01-28T08:40:54;34.03;;;21.43;;
2610;SDS011;5612;51.134;17.058;2023-01-28T08:43:24;37.13;;;26.13;;
2610;SDS011;5612;51.134;17.058;2023-01-28T08:45:53;39.30;;;26.40;;
2610;SDS011;5612;51.134;17.058;2023-01-28T08:48:22;32.30;;;23.67;;
2610;SDS011;5612;51.134;17.058;2023-01-28T08:50:51;36.70;;;23.70;;
2610;SDS011;5612;51.134;17.058;2023-01-28T08:53:19;34.43;;;23.53;;
2610;SDS011;5612;51.134;17.058;2023-01-28T08:55:48;31.57;;;23.13;;
2610;SDS011;5612;51.134;17.058;2023-01-28T08:58:18;33.40;;;23.97;;
2610;SDS011;5612;51.134;17.058;2023-01-28T09:00:47;34.67;;;24.87;;
2610;SDS011;5612;51.134;17.058;2023-01-28T09:03:17;31.03;;;23.73;;
2610;SDS011;5612;51.134;17.058;2023-01-28T09:05:46;29.43;;;22.97;;
2610;SDS011;5612;51.134;17.058;2023-01-28T09:08:16;33.27;;;23.07;;
2610;SDS011;5612;51.134;17.058;2023-01-28T09:10:44;34.30;;;25.47;;
2610;SDS011;5612;51.134;17.058;2023-01-28T09:13:14;34.80;;;27.27;;
2610;SDS011;5612;51.134;17.058;2023-01-28T09:15:44;34.37;;;27.77;;
2610;SDS011;5612;51.134;17.058;2023-01-28T09:18:13;36.10;;;26.70;;
2610;SDS011;5612;51.134;17.058;2023-01-28T09:20:42;30.80;;;25.57;;
2610;SDS011;5612;51.134;17.058;2023-01-28T09:23:11;34.97;;;24.70;;
2610;SDS011;5612;51.134;17.058;2023-01-28T09:25:40;31.00;;;24.53;;
2610;SDS011;5612;51.134;17.058;2023-01-28T09:28:09;28.57;;;23.40;;
2610;SDS011;5612;51.134;17.058;2023-01-28T09:30:38;25.73;;;20.83;;
2610;SDS011;5612;51.134;17.058;2023-01-28T09:33:08;26.67;;;19.80;;
2610;SDS011;5612;51.134;17.058;2023-01-28T09:35:37;24.80;;;18.63;;
2610;SDS011;5612;51.134;17.058;2023-01-28T09:38:06;24.27;;;19.80;;
2610;SDS011;5612;51.134;17.058;2023-01-28T09:40:35;21.60;;;18.97;;
2610;SDS011;5612;51.134;17.058;2023-01-28T09:43:13;23.60;;;18.53;;
2610;SDS011;5612;51.134;17.058;2023-01-28T09:45:56;28.20;;;20.20;;
2610;SDS011;5612;51.134;17.058;2023-01-28T09:48:29;29.87;;;22.07;;
2610;SDS011;5612;51.134;17.058;2023-01-28T09:51:06;24.13;;;18.57;;
2610;SDS011;5612;51.134;17.058;2023-01-28T09:53:38;26.47;;;20.37;;
2610;SDS011;5612;51.134;17.058;2023-01-28T09:56:18;24.50;;;19.57;;
2610;SDS011;5612;51.134;17.058;2023-01-28T09:58:52;25.97;;;20.80;;
2610;SDS011;5612;51.134;17.058;2023-01-28T10:01:27;22.53;;;19.17;;
2610;SDS011;5612;51.134;17.058;2023-01-28T10:04:09;26.30;;;20.77;;
2610;SDS011;5612;51.134;17.058;2023-01-28T10:06:51;23.50;;;18.27;;
2610;SDS011;5612;51.134;17.058;2023-01-28T10:09:33;29.33;;;22.73;;
2610;SDS011;5612;51.134;17.058;2023-01-28T10:12:19;26.30;;;20.40;;
2610;SDS011;5612;51.134;17.058;2023-01-28T10:15:07;23.40;;;18.40;;
2610;SDS011;5612;51.134;17.058;2023-01-28T10:17:48;20.17;;;17.93;;
2610;SDS011;5612;51.134;17.058;2023-01-28T10:20:42;23.60;;;19.27;;
2610;SDS011;5612;51.134;17.058;2023-01-28T10:23:15;20.50;;;17.30;;
2610;SDS011;5612;51.134;17.058;2023-01-28T10:25:48;23.00;;;17.87;;
2610;SDS011;5612;51.134;17.058;2023-01-28T10:28:18;21.90;;;18.43;;
2610;SDS011;5612;51.134;17.058;2023-01-28T10:30:49;20.20;;;18.00;;
2610;SDS011;5612;51.134;17.058;2023-01-28T10:33:19;21.40;;;18.87;;
2610;SDS011;5612;51.134;17.058;2023-01-28T10:35:53;22.70;;;19.47;;
2610;SDS011;5612;51.134;17.058;2023-01-28T10:38:23;22.33;;;19.83;;
2610;SDS011;5612;51.134;17.058;2023-01-28T10:40:54;23.60;;;19.27;;
2610;SDS011;5612;51.134;17.058;2023-01-28T10:43:28;22.53;;;18.40;;
2610;SDS011;5612;51.134;17.058;2023-01-28T10:46:00;22.57;;;20.20;;
2610;SDS011;5612;51.134;17.058;2023-01-28T10:48:35;24.33;;;21.33;;
2610;SDS011;5612;51.134;17.058;2023-01-28T10:51:11;22.53;;;20.10;;
2610;SDS011;5612;51.134;17.058;2023-01-28T10:53:41;22.60;;;19.97;;
2610;SDS011;5612;51.134;17.058;2023-01-28T10:56:12;26.30;;;23.13;;
2610;SDS011;5612;51.134;17.058;2023-01-28T10:58:55;23.03;;;20.37;;
2610;SDS011;5612;51.134;17.058;2023-01-28T11:04:16;24.67;;;22.20;;
2610;SDS011;5612;51.134;17.058;2023-01-28T11:06:54;21.70;;;19.37;;
2610;SDS011;5612;51.134;17.058;2023-01-28T11:09:25;24.10;;;21.30;;
2610;SDS011;5612;51.134;17.058;2023-01-28T11:11:56;19.00;;;17.10;;
2610;SDS011;5612;51.134;17.058;2023-01-28T11:14:26;18.40;;;16.50;;
2610;SDS011;5612;51.134;17.058;2023-01-28T11:16:55;19.40;;;17.40;;
2610;SDS011;5612;51.134;17.058;2023-01-28T11:19:27;21.70;;;17.13;;
2610;SDS011;5612;51.134;17.058;2023-01-28T11:22:02;17.73;;;15.83;;
2610;SDS011;5612;51.134;17.058;2023-01-28T11:24:31;19.80;;;17.23;;
2610;SDS011;5612;51.134;17.058;2023-01-28T11:27:08;22.70;;;18.70;;
2610;SDS011;5612;51.134;17.058;2023-01-28T11:29:42;17.90;;;15.57;;
2610;SDS011;5612;51.134;17.058;2023-01-28T11:32:16;16.80;;;14.00;;
2610;SDS011;5612;51.134;17.058;2023-01-28T11:34:49;18.50;;;16.57;;
2610;SDS011;5612;51.134;17.058;2023-01-28T11:37:21;15.93;;;14.33;;
2610;SDS011;5612;51.134;17.058;2023-01-28T11:40:01;16.20;;;14.50;;
2610;SDS011;5612;51.134;17.058;2023-01-28T11:42:32;16.50;;;14.67;;
2610;SDS011;5612;51.134;17.058;2023-01-28T11:45:00;16.60;;;14.90;;
2610;SDS011;5612;51.134;17.058;2023-01-28T11:47:35;14.30;;;12.90;;
2610;SDS011;5612;51.134;17.058;2023-01-28T11:50:19;14.00;;;12.53;;
2610;SDS011;5612;51.134;17.058;2023-01-28T11:52:59;15.63;;;13.50;;
2610;SDS011;5612;51.134;17.058;2023-01-28T11:56:12;12.63;;;11.43;;
2610;SDS011;5612;51.134;17.058;2023-01-28T11:58:54;12.57;;;11.27;;
2610;SDS011;5612;51.134;17.058;2023-01-28T12:01:36;13.37;;;12.10;;
2610;SDS011;5612;51.134;17.058;2023-01-28T12:04:18;15.03;;;10.30;;
2610;SDS011;5612;51.134;17.058;2023-01-28T12:07:00;10.97;;;9.90;;
2610;SDS011;5612;51.134;17.058;2023-01-28T12:09:42;15.60;;;12.23;;
2610;SDS011;5612;51.134;17.058;2023-01-28T12:12:20;14.47;;;13.07;;
2610;SDS011;5612;51.134;17.058;2023-01-28T12:15:20;11.30;;;10.03;;
2610;SDS011;5612;51.134;17.058;2023-01-28T12:18:01;12.50;;;11.17;;
2610;SDS011;5612;51.134;17.058;2023-01-28T12:20:44;13.10;;;10.50;;
2610;SDS011;5612;51.134;17.058;2023-01-28T12:23:23;12.50;;;11.30;;
2610;SDS011;5612;51.134;17.058;2023-01-28T12:26:07;14.17;;;11.20;;
2610;SDS011;5612;51.134;17.058;2023-01-28T12:31:39;27.63;;;20.47;;
2610;SDS011;5612;51.134;17.058;2023-01-28T12:34:48;19.00;;;16.97;;
2610;SDS011;5612;51.134;17.058;2023-01-28T12:37:32;18.83;;;16.70;;
2610;SDS011;5612;51.134;17.058;2023-01-28T12:40:15;16.70;;;14.60;;
2610;SDS011;5612;51.134;17.058;2023-01-28T12:43:02;16.43;;;14.40;;
2610;SDS011;5612;51.134;17.058;2023-01-28T12:45:37;18.03;;;14.37;;
2610;SDS011;5612;51.134;17.058;2023-01-28T12:48:09;17.40;;;13.17;;
2610;SDS011;5612;51.134;17.058;2023-01-28T12:50:42;16.27;;;13.10;;
2610;SDS011;5612;51.134;17.058;2023-01-28T12:53:18;15.80;;;14.20;;
2610;SDS011;5612;51.134;17.058;2023-01-28T12:55:52;20.37;;;15.20;;
2610;SDS011;5612;51.134;17.058;2023-01-28T12:58:30;18.10;;;14.10;;
2610;SDS011;5612;51.134;17.058;2023-01-28T13:01:04;18.80;;;15.17;;
2610;SDS011;5612;51.134;17.058;2023-01-28T13:03:39;16.17;;;12.67;;
2610;SDS011;5612;51.134;17.058;2023-01-28T13:06:18;13.43;;;12.03;;
2610;SDS011;5612;51.134;17.058;2023-01-28T13:08:53;12.60;;;11.30;;
2610;SDS011;5612;51.134;17.058;2023-01-28T13:11:30;12.07;;;10.60;;
2610;SDS011;5612;51.134;17.058;2023-01-28T13:14:03;10.20;;;9.20;;
2610;SDS011;5612;51.134;17.058;2023-01-28T13:16:33;11.20;;;9.73;;
2610;SDS011;5612;51.134;17.058;2023-01-28T13:19:05;11.70;;;10.50;;
2610;SDS011;5612;51.134;17.058;2023-01-28T13:21:35;11.13;;;10.03;;
2610;SDS011;5612;51.134;17.058;2023-01-28T13:24:23;10.80;;;9.70;;
2610;SDS011;5612;51.134;17.058;2023-01-28T13:27:08;9.63;;;8.73;;
2610;SDS011;5612;51.134;17.058;2023-01-28T13:29:40;11.33;;;10.13;;
2610;SDS011;5612;51.134;17.058;2023-01-28T13:32:30;15.20;;;12.13;;
2610;SDS011;5612;51.134;17.058;2023-01-28T13:35:02;12.70;;;10.53;;
2610;SDS011;5612;51.134;17.058;2023-01-28T13:37:35;10.00;;;9.00;;
2610;SDS011;5612;51.134;17.058;2023-01-28T13:40:15;12.77;;;11.43;;
2610;SDS011;5612;51.134;17.058;2023-01-28T13:42:58;11.63;;;10.27;;
2610;SDS011;5612;51.134;17.058;2023-01-28T13:45:30;11.30;;;10.10;;
2610;SDS011;5612;51.134;17.058;2023-01-28T13:48:01;12.33;;;11.10;;
2610;SDS011;5612;51.134;17.058;2023-01-28T13:50:42;10.60;;;9.57;;
2610;SDS011;5612;51.134;17.058;2023-01-28T13:53:16;11.83;;;8.47;;
2610;SDS011;5612;51.134;17.058;2023-01-28T13:55:52;8.93;;;8.03;;
2610;SDS011;5612;51.134;17.058;2023-01-28T13:58:33;9.37;;;8.30;;
2610;SDS011;5612;51.134;17.058;2023-01-28T14:01:34;6.87;;;6.27;;
2610;SDS011;5612;51.134;17.058;2023-01-28T14:04:34;7.07;;;5.87;;
2610;SDS011;5612;51.134;17.058;2023-01-28T14:07:27;6.50;;;5.80;;
2610;SDS011;5612;51.134;17.058;2023-01-28T14:10:16;5.90;;;5.47;;
2610;SDS011;5612;51.134;17.058;2023-01-28T14:16:04;6.60;;;5.97;;
2610;SDS011;5612;51.134;17.058;2023-01-28T14:18:59;9.70;;;6.90;;
2610;SDS011;5612;51.134;17.058;2023-01-28T14:21:31;7.63;;;6.73;;
2610;SDS011;5612;51.134;17.058;2023-01-28T14:24:02;6.67;;;5.97;;
2610;SDS011;5612;51.134;17.058;2023-01-28T14:26:39;10.40;;;8.03;;
2610;SDS011;5612;51.134;17.058;2023-01-28T14:29:18;12.77;;;9.30;;
2610;SDS011;5612;51.134;17.058;2023-01-28T14:31:54;9.93;;;7.17;;
2610;SDS011;5612;51.134;17.058;2023-01-28T14:34:26;10.10;;;8.13;;
2610;SDS011;5612;51.134;17.058;2023-01-28T14:36:57;8.50;;;7.27;;
2610;SDS011;5612;51.134;17.058;2023-01-28T14:39:30;7.50;;;6.90;;
2610;SDS011;5612;51.134;17.058;2023-01-28T14:42:05;7.50;;;6.80;;
2610;SDS011;5612;51.134;17.058;2023-01-28T14:44:44;6.63;;;5.93;;
2610;SDS011;5612;51.134;17.058;2023-01-28T14:47:29;7.83;;;7.13;;
2610;SDS011;5612;51.134;17.058;2023-01-28T14:50:24;11.80;;;9.70;;
2610;SDS011;5612;51.134;17.058;2023-01-28T14:53:08;8.93;;;8.07;;
2610;SDS011;5612;51.134;17.058;2023-01-28T14:55:52;8.80;;;7.93;;
2610;SDS011;5612;51.134;17.058;2023-01-28T14:58:26;8.63;;;7.83;;
2610;SDS011;5612;51.134;17.058;2023-01-28T15:00:59;10.43;;;9.17;;
2610;SDS011;5612;51.134;17.058;2023-01-28T15:03:28;10.20;;;9.10;;
2610;SDS011;5612;51.134;17.058;2023-01-28T15:06:02;10.40;;;9.27;;
2610;SDS011;5612;51.134;17.058;2023-01-28T15:08:33;10.43;;;9.33;;
2610;SDS011;5612;51.134;17.058;2023-01-28T15:11:06;13.90;;;10.07;;
2610;SDS011;5612;51.134;17.058;2023-01-28T15:13:40;9.67;;;7.30;;
2610;SDS011;5612;51.134;17.058;2023-01-28T15:16:14;8.17;;;7.30;;
2610;SDS011;5612;51.134;17.058;2023-01-28T15:18:46;8.57;;;7.80;;
2610;SDS011;5612;51.134;17.058;2023-01-28T15:21:19;7.77;;;7.07;;
2610;SDS011;5612;51.134;17.058;2023-01-28T15:23:50;17.40;;;11.20;;